Flight Track Log - Related Links

Times and Time Zones

All times are in EDT time to prevent confusion due to time zone crossing. See the BJS444 flight status page for this flight to view local times or setup timezone preferences in your user account.

Time Position Orientation Groundspeed Altitude Reporting Facility
EDT Latitude Longitude Course Direction KTS MPH feet Rate Location/Type
Sun 05:08:05 PM 42.4667 -71.2667 200° South 147 169 1,200  Level KA90
Sun 05:08:59 PM 42.4333 -71.2833 200° South 193 222 2,600 2,640 Climbing KA90
Sun 05:11:00 PM 42.3814 -71.4422 246° West 227 261 8,900 2,884 Climbing Boston Center
Sun 05:12:00 PM 42.3697 -71.5381 261° West 273 314 11,300 2,550 Climbing Boston Center
Sun 05:13:00 PM 42.3269 -71.6539 243° Southwest 332 382 14,000 2,900 Climbing Boston Center
Sun 05:14:00 PM 42.2900 -71.7553 244° Southwest 369 425 17,100 3,719 Climbing Boston Center
Sun 05:15:01 PM 42.2283 -71.9186 243° Southwest 403 464 21,500 3,818 Climbing Boston Center
Sun 05:16:01 PM 42.1808 -72.0533 245° Southwest 403 464 24,800 2,773 Climbing Boston Center
Sun 05:17:00 PM 42.1417 -72.1600 244° Southwest 403 464 27,000 2,650 Climbing Boston Center
Sun 05:18:01 PM 42.0794 -72.3197 242° Southwest 403 464 30,100 3,000 Climbing Boston Center
Sun 05:19:00 PM 42.0314 -72.4514 244° Southwest 403 464 33,000 2,975 Climbing Boston Center
Sun 05:20:00 PM 41.9856 -72.5714 243° Southwest 388 447 36,000 2,500 Climbing Boston Center
Sun 05:21:00 PM 41.9436 -72.6772 242° Southwest 352 405 38,000 1,550 Climbing Boston Center
Sun 05:22:00 PM 41.8789 -72.7719 227° Southwest 339 390 39,100 900 Climbing Boston Center
Sun 05:23:00 PM 41.7994 -72.8800 225° Southwest 360 414 39,800 450 Climbing Boston Center
Sun 05:24:00 PM 41.7239 -72.9825 225° Southwest 378 435 40,000 100 Climbing Boston Center
Sun 05:25:00 PM 41.6461 -73.0900 226° Southwest 388 447 40,000 496 Level Boston Center
Sun 05:26:01 PM 41.5664 -73.2031 227° Southwest 402 463 41,000 865 Climbing Boston Center
Sun 05:28:28 PM 41.3811 -73.4506 225° Southwest 398 458 43,000 580 Climbing New York Center
Sun 05:29:28 PM 41.2994 -73.5578 225° Southwest 398 458 43,000  Level New York Center
Sun 05:30:29 PM 41.2281 -73.6761 231° Southwest 408 470 43,000  Level New York Center
Sun 05:31:29 PM 41.1583 -73.7969 233° Southwest 418 481 43,000  Level New York Center
Sun 05:32:30 PM 41.0864 -73.9150 231° Southwest 418 481 43,000  Level New York Center
Sun 05:33:30 PM 41.0167 -74.0328 232° Southwest 418 481 43,000  Level New York Center
Sun 05:34:29 PM 40.9444 -74.1500 231° Southwest 418 481 43,000  Level New York Center
Sun 05:35:30 PM 40.8725 -74.2644 230° Southwest 413 475 43,000  Level New York Center
Sun 05:36:28 PM 40.8022 -74.3786 231° Southwest 413 475 43,000  Level New York Center
Sun 05:37:29 PM 40.7319 -74.4956 232° Southwest 413 475 43,000  Level New York Center
Sun 05:38:30 PM 40.6639 -74.6094 232° Southwest 413 475 43,000  Level New York Center
Sun 05:39:30 PM 40.5911 -74.7283 231° Southwest 413 475 43,000  Level New York Center
Sun 05:40:28 PM 40.5144 -74.8411 228° Southwest 413 475 43,000  Level New York Center
Sun 05:41:28 PM 40.4419 -74.9461 228° Southwest 413 475 43,000  Level New York Center
Sun 05:42:29 PM 40.3650 -75.0531 227° Southwest 407 468 43,000  Level New York Center
Sun 05:43:29 PM 40.2883 -75.1600 227° Southwest 407 468 43,000  Level New York Center
Sun 05:44:29 PM 40.2156 -75.2639 227° Southwest 402 463 43,000  Level New York Center
Sun 05:45:30 PM 40.1453 -75.3600 226° Southwest 402 463 43,000  Level New York Center
Sun 05:46:30 PM 40.0725 -75.4608 227° Southwest 402 463 43,000  Level New York Center
Sun 05:47:28 PM 39.9994 -75.5644 227° Southwest 397 457 43,000  Level New York Center
Sun 05:48:29 PM 39.9242 -75.6675 226° Southwest 397 457 43,000  Level New York Center
Sun 05:49:30 PM 39.8572 -75.7764 231° Southwest 397 457 43,000  Level New York Center
Sun 05:50:28 PM 39.7878 -75.8850 230° Southwest 397 457 43,000  Level New York Center
Sun 05:51:29 PM 39.7206 -75.9961 232° Southwest 397 457 43,000  Level New York Center
Sun 05:53:13 PM 39.5869 -76.1975 229° Southwest 407 468 43,000  Level Washington Center
Sun 05:54:12 PM 39.5156 -76.3097 231° Southwest 407 468 43,000  Level Washington Center
Sun 05:55:12 PM 39.4419 -76.4219 230° Southwest 407 468 43,000  Level Washington Center
Sun 05:56:13 PM 39.3767 -76.5233 230° Southwest 407 468 43,000  Level Washington Center
Sun 05:57:13 PM 39.3028 -76.6350 229° Southwest 407 468 43,000  Level Washington Center
Sun 05:58:14 PM 39.2331 -76.7464 231° Southwest 407 468 43,000  Level Washington Center
Sun 05:59:12 PM 39.1611 -76.8550 230° Southwest 400 460 43,000  Level Washington Center
Sun 06:00:13 PM 39.0931 -76.9661 232° Southwest 400 460 43,000  Level Washington Center
Sun 06:01:14 PM 39.0169 -77.0689 226° Southwest 400 460 43,000  Level Washington Center
Sun 06:02:14 PM 38.9300 -77.1739 223° Southwest 395 455 43,000  Level Washington Center
Sun 06:03:12 PM 38.8497 -77.2497 216° Southwest 395 455 43,000  Level Washington Center
Sun 06:04:13 PM 38.7631 -77.3436 220° Southwest 400 460 43,000  Level Washington Center
Sun 06:05:14 PM 38.6697 -77.4450 220° Southwest 405 466 43,000  Level Washington Center
Sun 06:06:12 PM 38.5850 -77.5386 221° Southwest 410 472 43,000  Level Washington Center
Sun 06:07:13 PM 38.5000 -77.6292 220° Southwest 410 472 43,000  Level Washington Center
Sun 06:08:13 PM 38.4169 -77.7250 222° Southwest 410 472 43,000  Level Washington Center
Sun 06:09:14 PM 38.3278 -77.8175 219° Southwest 410 472 43,000  Level Washington Center
Sun 06:10:12 PM 38.2469 -77.9078 221° Southwest 405 466 43,000  Level Washington Center
Sun 06:11:13 PM 38.1575 -78.0028 220° Southwest 410 472 43,000  Level Washington Center
Sun 06:12:13 PM 38.0700 -78.0975 220° Southwest 410 472 43,000  Level Washington Center
Sun 06:13:14 PM 38.0017 -78.1664 218° Southwest 410 472 43,000  Level Washington Center
Sun 06:14:14 PM 37.9036 -78.2631 218° Southwest 410 472 43,000  Level Washington Center
Sun 06:15:13 PM 37.8014 -78.3567 216° Southwest 416 479 43,000  Level Washington Center
Sun 06:16:13 PM 37.7097 -78.4453 217° Southwest 421 484 43,000  Level Washington Center
Sun 06:17:14 PM 37.6158 -78.5333 217° Southwest 421 484 43,000  Level Washington Center
Sun 06:18:12 PM 37.5219 -78.6214 217° Southwest 421 484 43,000  Level Washington Center
Sun 06:19:12 PM 37.4300 -78.7092 217° Southwest 421 484 43,000  Level Washington Center
Sun 06:20:14 PM 37.3444 -78.7867 216° Southwest 426 490 43,000  Level Washington Center
Sun 06:21:14 PM 37.2525 -78.8717 216° Southwest 426 490 43,000  Level Washington Center
Sun 06:22:12 PM 37.1603 -78.9564 216° Southwest 426 490 43,000  Level Washington Center
Sun 06:23:13 PM 37.0661 -79.0433 216° Southwest 426 490 43,000  Level Washington Center
Sun 06:24:14 PM 36.9761 -79.1278 217° Southwest 416 479 43,000  Level Washington Center
Sun 06:25:12 PM 36.8753 -79.2192 216° Southwest 416 479 43,000  Level Washington Center
Sun 06:26:12 PM 36.7850 -79.3031 217° Southwest 416 479 43,000  Level Washington Center
Sun 06:27:14 PM 36.6925 -79.3894 217° Southwest 416 479 43,000  Level Washington Center
Sun 06:28:12 PM 36.6003 -79.4728 216° Southwest 416 479 43,000  Level Washington Center
Sun 06:30:31 PM 36.3850 -79.6650 216° Southwest 424 488 43,000  Level Atlanta Center
Sun 06:31:31 PM 36.2942 -79.7497 217° Southwest 415 478 43,000  Level Atlanta Center
Sun 06:32:31 PM 36.2011 -79.8344 216° Southwest 425 489 43,000  Level Atlanta Center
Sun 06:33:31 PM 36.1181 -79.9056 215° Southwest 420 483 43,000  Level Atlanta Center
Sun 06:34:31 PM 36.0247 -79.9822 214° Southwest 425 489 43,000  Level Atlanta Center
Sun 06:35:31 PM 35.9161 -80.0414 204° Southwest 419 482 43,000  Level Atlanta Center
Sun 06:36:31 PM 35.8072 -80.0931 201° Southwest 419 482 43,000  Level Atlanta Center
Sun 06:37:31 PM 35.6900 -80.1522 202° Southwest 419 482 43,000  Level Atlanta Center
Sun 06:38:31 PM 35.5833 -80.2058 202° Southwest 419 482 43,000  Level Atlanta Center
Sun 06:39:31 PM 35.4786 -80.2592 203° Southwest 411 473 43,000  Level Atlanta Center
Sun 06:40:31 PM 35.3739 -80.3125 203° Southwest 411 473 43,000  Level Atlanta Center
Sun 06:41:31 PM 35.2792 -80.3600 202° Southwest 411 473 43,000  Level Atlanta Center
Sun 06:43:28 PM 35.0667 -80.4631 202° Southwest 389 448 43,000  Level Jacksonville Center
Sun 06:44:28 PM 34.9656 -80.5164 203° Southwest 395 455 43,000  Level Jacksonville Center
Sun 06:45:28 PM 34.8603 -80.5700 203° Southwest 401 461 43,000  Level Jacksonville Center
Sun 06:46:28 PM 34.7611 -80.6208 203° Southwest 401 461 43,000  Level Jacksonville Center
Sun 06:47:28 PM 34.6575 -80.6689 201° Southwest 401 461 43,000  Level Jacksonville Center
Sun 06:48:28 PM 34.5481 -80.7247 203° Southwest 417 480 43,000  Level Jacksonville Center
Sun 06:49:28 PM 34.4403 -80.7728 200° South 417 480 43,000  Level Jacksonville Center
Sun 06:50:28 PM 34.3475 -80.8278 206° Southwest 405 466 43,000  Level Jacksonville Center
Sun 06:51:28 PM 34.2397 -80.8756 200° South 394 453 43,000  Level Jacksonville Center
Sun 06:52:28 PM 34.1361 -80.9231 201° Southwest 394 453 43,000  Level Jacksonville Center
Sun 06:53:28 PM 34.0325 -80.9731 202° Southwest 394 453 43,000  Level Jacksonville Center
Sun 06:54:28 PM 33.9311 -81.0228 202° Southwest 394 453 43,000  Level Jacksonville Center
Sun 06:55:28 PM 33.8378 -81.0622 199° South 394 453 43,000  Level Jacksonville Center
Sun 06:56:28 PM 33.7281 -81.1219 204° Southwest 394 453 43,000  Level Jacksonville Center
Sun 06:57:28 PM 33.6286 -81.1714 202° Southwest 394 453 43,000  Level Jacksonville Center
Sun 06:58:28 PM 33.5269 -81.2208 202° Southwest 394 453 43,000  Level Jacksonville Center
Sun 06:59:28 PM 33.4253 -81.2700 202° Southwest 394 453 43,000  Level Jacksonville Center
Sun 07:00:28 PM 33.3258 -81.3214 203° Southwest 394 453 43,000  Level Jacksonville Center
Sun 07:01:28 PM 33.2242 -81.3656 200° South 389 448 43,000  Level Jacksonville Center
Sun 07:02:28 PM 33.1244 -81.4167 203° Southwest 389 448 43,000  Level Jacksonville Center
Sun 07:03:28 PM 33.0269 -81.4656 203° Southwest 389 448 43,000  Level Jacksonville Center
Sun 07:04:28 PM 32.9336 -81.5089 201° Southwest 389 448 43,000  Level Jacksonville Center
Sun 07:05:28 PM 32.8358 -81.5600 204° Southwest 389 448 43,000  Level Jacksonville Center
Sun 07:06:28 PM 32.7361 -81.6058 201° Southwest 389 448 43,000  Level Jacksonville Center
Sun 07:07:28 PM 32.6281 -81.6592 203° Southwest 389 448 43,000  Level Jacksonville Center
Sun 07:08:28 PM 32.5389 -81.7022 202° Southwest 389 448 43,000  Level Jacksonville Center
Sun 07:09:28 PM 32.4286 -81.7556 202° Southwest 389 448 43,000  Level Jacksonville Center
Sun 07:10:28 PM 32.3392 -81.7958 201° Southwest 389 448 43,000  Level Jacksonville Center
Sun 07:11:28 PM 32.2311 -81.8489 203° Southwest 389 448 43,000  Level Jacksonville Center
Sun 07:12:28 PM 32.1314 -81.8917 200° South 389 448 43,000  Level Jacksonville Center
Sun 07:13:28 PM 32.0292 -81.9025 185° South 398 458 43,000  Level Jacksonville Center
Sun 07:14:28 PM 31.9103 -81.9186 187° South 403 464 43,000  Level Jacksonville Center
Sun 07:15:28 PM 31.8122 -81.9317 186° South 403 464 43,000  Level Jacksonville Center
Sun 07:16:28 PM 31.6933 -81.9453 186° South 409 471 43,000  Level Jacksonville Center
Sun 07:17:28 PM 31.5828 -81.9586 186° South 402 463 43,000  Level Jacksonville Center
Sun 07:19:28 PM 31.3636 -81.9875 186° South 408 470 43,000  Level Jacksonville Center
Sun 07:20:28 PM 31.2636 -82.0056 189° South 403 464 43,000  Level Jacksonville Center
Sun 07:21:28 PM 31.1489 -82.0186 186° South 408 470 43,000  Level Jacksonville Center
Sun 07:22:28 PM 31.0383 -82.0294 185° South 408 470 43,000  Level Jacksonville Center
Sun 07:23:28 PM 30.9256 -82.0450 187° South 408 470 43,000  Level Jacksonville Center
Sun 07:24:28 PM 30.8128 -82.0581 186° South 408 470 43,000  Level Jacksonville Center
Sun 07:25:28 PM 30.7003 -82.0736 187° South 408 470 43,000  Level Jacksonville Center
Sun 07:26:28 PM 30.5875 -82.0867 186° South 408 470 43,000  Level Jacksonville Center
Sun 07:27:28 PM 30.4728 -82.0925 183° South 408 470 43,000  Level Jacksonville Center
Sun 07:28:28 PM 30.3581 -82.1078 187° South 413 475 43,000  Level Jacksonville Center
Sun 07:29:28 PM 30.2453 -82.1231 187° South 413 475 43,000  Level Jacksonville Center
Sun 07:30:28 PM 30.1283 -82.1192 178° South 413 475 43,000  Level Jacksonville Center
Sun 07:31:28 PM 30.0011 -82.0986 172° South 413 475 43,000  Level Jacksonville Center
Sun 07:32:28 PM 29.8881 -82.0733 169° South 428 493 43,000 -350 Level Jacksonville Center
Sun 07:33:28 PM 29.7689 -82.0528 171° South 428 493 42,300 -1,600 Descending Jacksonville Center
Sun 07:34:28 PM 29.6561 -82.0275 169° South 428 493 39,800 -2,500 Descending Jacksonville Center
Sun 07:35:28 PM 29.5411 -82.0044 170° South 423 487 37,300 -2,200 Descending Jacksonville Center
Sun 07:36:28 PM 29.4219 -81.9842 172° South 430 495 35,400 -1,150 Descending Jacksonville Center
Sun 07:37:28 PM 29.2964 -81.9592 170° South 443 510 35,000 -200 Descending Jacksonville Center
Sun 07:38:28 PM 29.1711 -81.9294 168° South 455 524 35,000  Level Jacksonville Center
Sun 07:39:28 PM 29.0478 -81.9069 171° South 455 524 35,000 -804 Level Jacksonville Center
Sun 07:41:27 PM 28.8183 -81.8642 171° South 439 505 32,600 -1,877 Descending Miami Center
Sun 07:42:27 PM 28.7003 -81.8375 169° South 439 505 29,400 -2,800 Descending Miami Center
Sun 07:43:27 PM 28.5883 -81.8158 170° South 429 494 27,000 -1,200 Descending Miami Center
Sun 07:44:27 PM 28.4706 -81.7847 167° South 430 495 27,000  Level Miami Center
Sun 07:45:27 PM 28.3344 -81.7458 166° South 449 517 27,000 -700 Level Miami Center
Sun 07:46:27 PM 28.2228 -81.7150 166° South 441 507 25,600 -1,650 Descending Miami Center
Sun 07:47:27 PM 28.1172 -81.6847 166° South 414 476 23,700 -1,950 Descending Miami Center
Sun 07:48:27 PM 28.0075 -81.6611 169° South 401 461 21,700 -1,350 Descending Miami Center
Sun 07:49:27 PM 27.9039 -81.6425 171° South 395 455 21,000 -350 Descending Miami Center
Sun 07:50:27 PM 27.8083 -81.6244 171° South 390 449 21,000  Level Miami Center
Sun 07:51:27 PM 27.7025 -81.6061 171° South 392 451 21,000  Level Miami Center
Sun 07:52:27 PM 27.5844 -81.5847 171° South 392 451 21,000  Level Miami Center
Sun 07:53:27 PM 27.4786 -81.5664 171° South 386 444 21,000 -150 Level Miami Center
Sun 07:54:27 PM 27.3831 -81.5483 170° South 386 444 20,700 -2,150 Descending Miami Center
Sun 07:55:27 PM 27.2814 -81.5303 171° South 386 444 16,700 -4,000 Descending Miami Center
Sun 07:56:27 PM 27.1839 -81.5147 172° South 375 432 12,700 -3,150 Descending Miami Center
Sun 07:57:27 PM 27.0925 -81.4969 170° South 355 409 10,400 -1,350 Descending Miami Center
Sun 07:58:27 PM 26.9931 -81.4767 170° South 344 396 10,000 -200 Descending Miami Center
Sun 07:59:27 PM 26.9169 -81.4342 154° Southeast 330 380 10,000 -50 Level Miami Center
Sun 08:00:27 PM 26.8183 -81.3883 157° South 341 392 9,900 -50 Descending Miami Center
Sun 08:01:27 PM 26.7222 -81.3917 182° South 341 392 9,900 -650 Level Miami Center
Sun 08:02:27 PM 26.6447 -81.3956 183° South 314 361 8,600 -1,600 Descending Miami Center
Sun 08:03:27 PM 26.5758 -81.4000 183° South 285 328 6,700 -1,300 Descending Miami Center
Sun 08:04:27 PM 26.5025 -81.4086 186° South 279 321 6,000 -700 Descending Miami Center
Sun 08:06:00 PM 26.3399 -81.4534 197° South  Level FlightAware Approximate
Sun 08:13:00 PM 26.1500 -81.7667 246° West  Level FlightAware Approximate
Sun 08:14:00 PM 26.1524 -81.7756 246° West  Level Estimated
Sun 08:15:00 PM 26.1524 -81.7756 246° West  Level Estimated
Sun 08:16:00 PM 26.1524 -81.7756 246° West  Level Estimated
Sun 08:17:00 PM 26.1524 -81.7756 246° West  Level Estimated
Sun 08:18:00 PM 26.1524 -81.7756 246° West  Level Estimated
Sun 08:19:00 PM 26.1524 -81.7756 246° West  Level Estimated
Sun 08:20:00 PM 26.1524 -81.7756 246° West  Level Estimated
Sun 08:21:00 PM 26.1524 -81.7756 246° West  Level Estimated

Login

Don't have an account? Register now (free) for customized features, flight alerts, and more!